San Luis Obispo, California
Current Conditions -  °F | °C
As of 1:56 AM on Thursday 27 Nov 2014 (Local Time) from KSBP Reporting Station
Clear Clear  
Wind Chill: 45°   Ceiling: Unl
Heat Index: 45°   Visibility: 10mi
Dew Point: 37°   Wind: 3mph
Humidity: 74%   Direction: 150°SSE
Pressure: 30.15"   Gusts: NA
Location:  35.29°N, 120.66°W
Report Text: KSBP 270956Z AUTO 15003KT 10SM CLR 07/03 A3015 RMK AO2 SLP208 T00720028
Loading
Personal Weather Stations






























Interactive Weather Map New forecast layout! Learn more

10-Day Weather Forecast

Advertisements
Track Severe Weather on mobile